createdAt,value
2022-11-03T12:19:20.490Z,12.33
2022-11-03T12:20:20.519Z,12.45
2022-11-03T12:21:20.537Z,12.37
2022-11-03T12:22:20.585Z,12.34
2022-11-03T13:15:18.282Z,13.29
2022-11-03T13:16:18.303Z,13.37
2022-11-03T13:17:18.391Z,13.33
2022-11-03T13:18:18.397Z,13.49
2022-11-03T14:33:36.308Z,13.02
2022-11-03T14:34:37.102Z,12.87
2022-11-03T14:35:36.393Z,12.79
2022-11-03T14:36:36.416Z,12.92
2022-11-03T14:37:36.558Z,12.95
2022-11-03T14:38:36.508Z,12.84
2022-11-03T14:39:36.582Z,12.87
2022-11-03T14:40:36.598Z,12.78
2022-11-03T14:41:37.506Z,12.78
2022-11-03T14:42:36.730Z,12.77
2022-11-03T14:43:36.740Z,12.84
2022-11-03T14:44:36.885Z,12.84
2022-11-03T14:45:39.766Z,12.82
2022-11-03T14:46:36.887Z,12.81
2022-11-03T14:47:37.512Z,12.78
2022-11-03T14:48:36.977Z,12.67
2022-11-03T14:49:37.030Z,12.66
2022-11-03T14:50:37.098Z,12.64
2022-11-03T14:51:37.123Z,12.67
2022-11-03T14:52:37.168Z,12.70
2022-11-03T14:53:38.007Z,12.74
2022-11-03T14:54:37.261Z,12.74
2022-11-03T14:55:37.409Z,12.81
2022-11-03T14:56:38.014Z,12.67
2022-11-03T14:57:37.411Z,12.79
2022-11-03T14:58:38.016Z,12.67
2022-11-03T15:12:04.000Z,12.56
2022-11-03T15:12:36.996Z,12.45
2022-11-03T15:13:41.716Z,12.54
2022-11-03T15:14:37.086Z,12.52
2022-11-03T15:15:37.134Z,12.41
2022-11-03T15:16:37.181Z,12.39
2022-11-03T15:17:37.311Z,12.48
2022-11-03T15:18:37.273Z,12.39
2022-11-03T15:19:37.320Z,12.39
2022-11-03T15:20:37.370Z,12.44
2022-11-03T15:21:37.426Z,12.33
2022-11-03T15:25:37.610Z,12.27
2022-11-03T15:26:37.658Z,12.29
2022-11-03T15:27:37.730Z,12.30
2022-11-03T15:28:37.749Z,12.27
2022-11-03T16:50:26.829Z,11.59
2022-11-03T16:50:59.825Z,11.59
2022-11-03T16:51:59.874Z,11.56
2022-11-03T16:52:59.915Z,11.70
2022-11-03T16:53:59.998Z,11.68
2022-11-03T16:55:00.011Z,11.64
2022-11-03T16:56:03.885Z,11.54
2022-11-03T17:09:36.137Z,11.86
2022-11-03T17:10:10.049Z,11.87
2022-11-03T17:11:09.216Z,11.97
2022-11-03T17:12:09.875Z,11.89
2022-11-03T17:13:10.366Z,11.97
2022-11-03T17:14:09.330Z,11.85
2022-11-03T17:15:09.359Z,11.94
2022-11-03T17:16:09.460Z,11.97
2022-11-03T17:17:09.465Z,11.90
2022-11-03T17:18:10.481Z,11.89
2022-11-03T17:19:10.585Z,11.96
2022-11-03T17:20:09.599Z,11.93
2022-11-03T17:21:09.676Z,11.90
2022-11-03T17:22:09.690Z,11.85
2022-11-03T17:23:09.741Z,11.96
2022-11-03T17:24:09.808Z,11.90
2022-11-03T17:25:09.829Z,11.90
2022-11-03T17:26:10.860Z,11.89
2022-11-03T17:27:09.964Z,11.94
2022-11-03T17:28:10.074Z,11.99
2022-11-03T17:29:10.017Z,11.97
2022-11-03T17:30:10.861Z,11.93
2022-11-03T17:31:10.115Z,11.89
2022-11-03T17:32:14.900Z,11.90
2022-11-03T17:41:23.912Z,11.90
2022-11-03T17:42:17.690Z,11.89
2022-11-03T17:43:17.750Z,11.94
2022-11-03T17:44:17.769Z,11.93
2022-11-03T17:45:18.375Z,11.93
2022-11-03T17:46:17.863Z,11.83
2022-11-03T17:47:18.877Z,12.02
2022-11-03T17:48:17.979Z,11.96
2022-11-03T17:49:18.008Z,11.96
2022-11-03T17:50:18.879Z,11.97
2022-11-03T17:51:18.098Z,11.90
2022-11-03T17:52:19.106Z,11.93
2022-11-03T17:53:18.269Z,11.94
2022-11-03T17:54:18.880Z,11.90
2022-11-03T17:55:18.286Z,11.87
2022-11-03T23:07:13.994Z,12.26
2022-11-03T23:08:13.922Z,12.27
2022-11-03T23:09:13.866Z,12.30
2022-11-03T23:10:38.481Z,12.27
2022-11-03T23:11:13.987Z,12.33
2022-11-03T23:12:14.059Z,12.37
2022-11-03T23:13:17.672Z,12.44
2022-11-03T23:14:14.140Z,12.31
2022-11-03T23:15:14.945Z,12.29
2022-11-03T23:16:14.195Z,12.29
2022-11-03T23:17:14.235Z,12.27
2022-11-03T23:18:15.076Z,12.29
2022-11-03T23:19:14.362Z,12.27
2022-11-03T23:20:14.954Z,12.23
2022-11-03T23:21:14.444Z,12.42
2022-11-03T23:22:14.469Z,12.34
2022-11-03T23:23:14.651Z,12.41
2022-11-03T23:24:14.563Z,12.44
2022-11-03T23:25:14.633Z,12.42
2022-11-03T23:26:14.668Z,12.38
2022-11-03T23:27:14.699Z,12.44
2022-11-03T23:28:14.775Z,12.45
2022-11-03T23:29:15.463Z,12.41
2022-11-03T23:30:14.840Z,12.41
2022-11-03T23:31:14.889Z,12.38
2022-11-03T23:32:14.939Z,12.42
2022-11-03T23:33:15.032Z,12.39
2022-11-03T23:34:15.052Z,12.42
2022-11-03T23:35:15.956Z,12.34
2022-11-03T23:36:15.123Z,12.37
2022-11-03T23:37:16.452Z,12.29
2022-11-03T23:38:15.217Z,12.23
2022-11-03T23:39:15.303Z,12.38
2022-11-03T23:40:17.350Z,12.39
2022-11-03T23:41:15.364Z,12.39
2022-11-03T23:42:15.417Z,12.44
2022-11-03T23:43:15.457Z,12.41
2022-11-03T23:44:15.535Z,12.27
2022-11-03T23:45:18.486Z,12.23
2022-11-03T23:46:15.605Z,12.27
2022-11-03T23:47:15.673Z,12.33
2022-11-03T23:48:16.459Z,12.23
2022-11-03T23:49:15.737Z,12.33
2022-11-03T23:50:15.823Z,12.27
2022-11-03T23:51:16.953Z,12.26
2022-11-03T23:52:17.335Z,12.29
2022-11-03T23:53:15.921Z,12.31
2022-11-03T23:54:15.973Z,12.24
2022-11-03T23:55:16.017Z,12.19
2022-11-03T23:56:16.101Z,12.16
2022-11-03T23:57:16.960Z,12.16
2022-11-03T23:58:16.502Z,12.13
2022-11-03T23:59:16.216Z,12.08
